Time;durP1;ratioP1;P1;durP2;ratioP2;P2;SDS_P1;SDS_P2;PMS_P1;PMS_P2;Temp;Humidity;BMP_temperature;BMP_pressure;BME280_temperature;BME280_humidity;BME280_pressure;Samples;Min_cycle;Max_cycle;Signal;HPM_P1;HPM_P2
2022/11/08 00:01:31;;;;;;;;;;;;;;;6.73;100.00;99364.59;5136106;27;19938;-83
2022/11/08 00:03:57;;;;;;;;;;;;;;;6.67;100.00;99352.50;5136056;27;19927;-83
2022/11/08 00:14:34;;;;;;;;;;;;;;;6.59;100.00;99354.53;5135885;27;20278;-83
2022/11/08 00:16:59;;;;;;;;;;;;;;;6.58;100.00;99352.81;5135856;27;19919;-83
2022/11/08 00:19:24;;;;;;;;;;;;;;;6.57;100.00;99347.59;5117548;27;19915;-82
2022/11/08 00:21:49;;;;;;;;;;;;;;;6.54;100.00;99352.06;5117246;27;20255;-84
2022/11/08 00:24:15;;;;;;;;;;;;;;;6.58;100.00;99347.53;5134493;27;19923;-84
2022/11/08 00:26:40;;;;;;;;;;;;;;;6.54;100.00;99341.53;5135504;27;20378;-84
2022/11/08 00:29:05;;;;;;;;;;;;;;;6.57;100.00;99337.91;5135508;27;20251;-83
2022/11/08 00:31:30;;;;;;;;;;;;;;;6.52;100.00;99335.44;5135568;27;19926;-84
2022/11/08 00:33:55;;;;;;;;;;;;;;;6.55;100.00;99337.97;5135443;27;19960;-83
2022/11/08 00:36:21;;;;;;;;;;;;;;;6.53;100.00;99341.56;5135482;27;20323;-83
2022/11/08 00:38:46;;;;;;;;;;;;;;;6.54;100.00;99338.00;5134240;27;19922;-83
2022/11/08 00:41:12;;;;;;;;;;;;;;;6.55;100.00;99331.84;5116887;27;19916;-83
2022/11/08 00:43:37;;;;;;;;;;;;;;;6.57;100.00;99335.28;5135368;27;19922;-83
2022/11/08 00:46:02;;;;;;;;;;;;;;;6.61;100.00;99341.31;5135192;27;20385;-83
2022/11/08 00:48:28;;;;;;;;;;;;;;;6.57;100.00;99340.53;5135364;27;19915;-83
2022/11/08 00:50:53;;;;;;;;;;;;;;;6.52;100.00;99345.94;5148074;27;19946;-83
2022/11/08 00:53:18;;;;;;;;;;;;;;;6.52;100.00;99338.06;5154414;27;19999;-83
2022/11/08 00:55:43;;;;;;;;;;;;;;;6.49;100.00;99334.69;5155729;27;20269;-83
2022/11/08 00:58:09;;;;;;;;;;;;;;;6.50;100.00;99345.16;5155725;27;19965;-83
2022/11/08 01:00:34;;;;;;;;;;;;;;;6.46;100.00;99337.41;5155763;27;19921;-84
2022/11/08 01:03:17;;;;;;;;;;;;;;;6.47;100.00;99331.25;5155538;27;19919;-83
2022/11/08 05:12:10;;;;;;;;;;;;;;;5.82;100.00;99133.44;5249760;22;19925;-83
2022/11/08 05:14:35;;;;;;;;;;;;;;;5.79;100.00;99138.78;5053729;28;19924;-83
2022/11/08 05:17:01;;;;;;;;;;;;;;;5.78;100.00;99134.47;5052440;28;20428;-82
2022/11/08 05:24:54;;;;;;;;;;;;;;;5.76;100.00;99136.25;5053616;28;19980;-83
2022/11/08 05:27:19;;;;;;;;;;;;;;;5.78;100.00;99137.09;5050908;28;20362;-82
2022/11/08 05:29:44;;;;;;;;;;;;;;;5.79;100.00;99146.69;5053207;28;20309;-81
2022/11/08 05:32:10;;;;;;;;;;;;;;;5.80;100.00;99143.16;5053306;28;19921;-82
2022/11/08 05:34:35;;;;;;;;;;;;;;;5.72;100.00;99139.94;5052054;28;19927;-81
2022/11/08 05:37:00;;;;;;;;;;;;;;;5.74;100.00;99133.69;5053374;28;19939;-81
2022/11/08 05:39:26;;;;;;;;;;;;;;;5.81;100.00;99134.38;5053228;28;19924;-81
2022/11/08 05:41:51;;;;;;;;;;;;;;;5.76;100.00;99131.88;5034505;28;19967;-81
2022/11/08 05:44:16;;;;;;;;;;;;;;;5.77;100.00;99136.22;5053236;28;19939;-82
2022/11/08 05:46:41;;;;;;;;;;;;;;;5.78;100.00;99127.44;5053065;28;20051;-82
2022/11/08 05:49:06;;;;;;;;;;;;;;;5.75;100.00;99122.28;5035214;28;19913;-82
2022/11/08 05:51:32;;;;;;;;;;;;;;;5.75;100.00;99118.78;5053063;28;20054;-82
2022/11/08 05:53:57;;;;;;;;;;;;;;;5.71;100.00;99117.16;5053098;28;19916;-82
2022/11/08 05:56:22;;;;;;;;;;;;;;;5.74;100.00;99106.56;5051782;28;19920;-83
2022/11/08 05:58:48;;;;;;;;;;;;;;;5.80;100.00;99107.19;5053074;28;19986;-82
2022/11/08 06:01:14;;;;;;;;;;;;;;;5.77;100.00;99109.06;5052887;28;19917;-82
2022/11/08 06:03:40;;;;;;;;;;;;;;;5.74;100.00;99119.69;5035116;28;19917;-82
2022/11/08 06:06:06;;;;;;;;;;;;;;;5.72;100.00;99117.13;5052966;28;20275;-82
2022/11/08 06:08:32;;;;;;;;;;;;;;;5.77;100.00;99106.44;5054758;28;19917;-83
2022/11/08 06:11:02;;;;;;;;;;;;;;;5.76;100.00;99105.59;5037899;28;19923;-83
2022/11/08 06:13:27;;;;;;;;;;;;;;;5.77;100.00;99109.94;5056524;28;19921;-82
2022/11/08 06:15:52;;;;;;;;;;;;;;;5.77;100.00;99106.44;5056871;28;20433;-83
2022/11/08 06:18:18;;;;;;;;;;;;;;;5.74;100.00;99091.63;5057009;28;20013;-83
2022/11/08 06:20:43;;;;;;;;;;;;;;;5.74;100.00;99096.88;5057049;28;19966;-83
2022/11/08 06:23:08;;;;;;;;;;;;;;;5.74;100.00;99103.91;5056956;28;19917;-83
2022/11/08 06:25:33;;;;;;;;;;;;;;;5.76;100.00;99099.47;5055350;28;20319;-82
2022/11/08 06:27:59;;;;;;;;;;;;;;;5.76;100.00;99099.47;5056811;28;19917;-83
2022/11/08 06:30:24;;;;;;;;;;;;;;;5.75;100.00;99101.25;5056593;28;19917;-83
2022/11/08 06:32:50;;;;;;;;;;;;;;;5.71;100.00;99097.00;5056512;28;19921;-83
2022/11/08 06:35:15;;;;;;;;;;;;;;;5.69;100.00;99097.97;5056654;28;19917;-83
2022/11/08 06:37:40;;;;;;;;;;;;;;;5.72;100.00;99089.97;5056468;28;19963;-83
2022/11/08 06:40:17;;;;;;;;;;;;;;;5.76;100.00;99095.09;5055856;28;20317;-91
2022/11/08 06:42:42;;;;;;;;;;;;;;;5.74;100.00;99093.41;5056606;28;19944;-87
2022/11/08 06:45:10;;;;;;;;;;;;;;;5.72;100.00;99098.72;5039209;28;19975;-89
2022/11/08 06:47:35;;;;;;;;;;;;;;;5.73;100.00;99100.44;5039133;28;20418;-82
2022/11/08 06:50:00;;;;;;;;;;;;;;;5.73;100.00;99116.22;5056315;28;19960;-84
2022/11/08 08:54:23;;;;;;;;;;;;;;;5.83;100.00;99178.09;5150750;22;19935;-86
2022/11/08 08:56:48;;;;;;;;;;;;;;;5.79;100.00;99183.50;5045842;28;20023;-87
2022/11/08 08:59:14;;;;;;;;;;;;;;;5.83;100.00;99172.81;5047826;28;19921;-88
2022/11/08 09:01:39;;;;;;;;;;;;;;;5.79;100.00;99172.97;5046411;28;19921;-87
2022/11/08 09:04:04;;;;;;;;;;;;;;;5.85;100.00;99171.94;5052577;28;20387;-87
2022/11/08 09:06:29;;;;;;;;;;;;;;;5.86;100.00;99177.13;5051114;28;20414;-87
2022/11/08 09:08:55;;;;;;;;;;;;;;;5.81;100.00;99177.28;5046292;28;19925;-87
2022/11/08 09:11:20;;;;;;;;;;;;;;;5.84;100.00;99176.34;5049823;28;21544;-87
2022/11/08 09:13:45;;;;;;;;;;;;;;;6.99;100.00;99163.50;5044694;28;19932;-84
2022/11/08 09:16:12;;;;;;;;;;;;;;;6.69;100.00;99165.50;5046231;28;19925;-87
2022/11/08 09:18:38;;;;;;;;;;;;;;;6.38;100.00;99176.28;5047225;28;19928;-85
2022/11/08 09:21:09;;;;;;;;;;;;;;;6.36;100.00;99177.19;5051283;28;19925;-87
2022/11/08 09:23:34;;;;;;;;;;;;;;;6.47;100.00;99175.97;5050428;28;19956;-86
2022/11/08 09:26:04;;;;;;;;;;;;;;;6.50;100.00;99183.75;5054131;28;19959;-89
2022/11/08 09:28:32;;;;;;;;;;;;;;;6.51;100.00;99185.44;5053450;28;19916;-88
2022/11/08 09:30:59;;;;;;;;;;;;;;;6.87;100.00;99175.34;5050829;28;19997;-84
2022/11/08 09:33:24;;;;;;;;;;;;;;;8.43;100.00;99170.84;5051637;28;19928;-84
2022/11/08 09:35:52;;;;;;;;;;;;;;;8.83;100.00;99171.75;5051358;28;19921;-91
2022/11/08 09:38:18;;;;;;;;;;;;;;;7.26;100.00;99172.13;5041127;28;20010;-88
2022/11/08 09:41:10;;;;;;;;;;;;;;;6.94;100.00;99170.72;5048684;28;19940;-92
2022/11/08 09:43:42;;;;;;;;;;;;;;;6.70;100.00;99177.75;5049081;28;19974;-88
2022/11/08 09:46:09;;;;;;;;;;;;;;;6.63;100.00;99171.00;5051998;28;19928;-88
2022/11/08 09:48:35;;;;;;;;;;;;;;;6.58;100.00;99179.06;5046732;28;19966;-88
2022/11/08 09:51:06;;;;;;;;;;;;;;;6.58;100.00;99179.06;5051727;28;19921;-87
2022/11/08 09:53:44;;;;;;;;;;;;;;;6.54;100.00;99178.31;5040673;28;20197;-89
2022/11/08 09:56:14;;;;;;;;;;;;;;;6.50;100.00;99181.97;5064359;28;20008;-88
2022/11/08 09:58:40;;;;;;;;;;;;;;;6.51;100.00;99182.81;5042147;28;19917;-88
2022/11/08 10:01:08;;;;;;;;;;;;;;;6.49;100.00;99174.13;5033219;28;19971;-89
2022/11/08 10:03:34;;;;;;;;;;;;;;;6.51;100.00;99174.91;5031776;28;19920;-87
2022/11/08 10:06:02;;;;;;;;;;;;;;;6.48;100.00;99182.94;5033268;28;19917;-87
2022/11/08 10:08:30;;;;;;;;;;;;;;;6.51;100.00;99182.81;5047446;28;19955;-87
2022/11/08 10:11:11;;;;;;;;;;;;;;;6.59;100.00;99180.78;5035576;28;19921;-90
2022/11/08 10:13:45;;;;;;;;;;;;;;;6.57;100.00;99179.97;5051448;28;19916;-87
2022/11/08 10:16:35;;;;;;;;;;;;;;;6.58;100.00;99183.47;5038068;28;19917;-89
2022/11/08 10:19:14;;;;;;;;;;;;;;;6.55;100.00;99179.16;5033436;28;20374;-88
2022/11/08 10:21:39;;;;;;;;;;;;;;;6.67;100.00;99186.63;5048254;28;19924;-87
2022/11/08 10:24:16;;;;;;;;;;;;;;;6.70;100.00;99183.88;5036911;28;19917;-87
2022/11/08 10:26:44;;;;;;;;;;;;;;;6.79;100.00;99185.31;5032912;28;20328;-89
2022/11/08 10:29:13;;;;;;;;;;;;;;;6.76;100.00;99192.47;5031637;28;20415;-89
2022/11/08 10:31:39;;;;;;;;;;;;;;;6.75;100.00;99185.47;5204009;23;19926;-89
2022/11/08 10:34:11;;;;;;;;;;;;;;;6.82;100.00;99173.81;4991155;28;19924;-88
2022/11/08 10:36:39;;;;;;;;;;;;;;;6.80;100.00;99175.66;4990979;28;19926;-87
2022/11/08 10:39:10;;;;;;;;;;;;;;;6.87;100.00;99167.44;4981542;28;20020;-91
2022/11/08 10:41:44;;;;;;;;;;;;;;;6.82;100.00;99165.91;4990946;28;19929;-87
2022/11/08 10:44:19;;;;;;;;;;;;;;;6.85;100.00;99160.53;4990406;28;20357;-87
2022/11/08 10:46:54;;;;;;;;;;;;;;;6.82;100.00;99156.22;4991990;28;19924;-87
2022/11/08 10:49:21;;;;;;;;;;;;;;;6.71;100.00;99153.16;4990705;28;19969;-90
2022/11/08 10:51:54;;;;;;;;;;;;;;;6.82;100.00;99148.34;4991241;28;20332;-86
2022/11/08 10:54:39;;;;;;;;;;;;;;;6.73;100.00;99146.03;4990291;28;20336;-87
2022/11/08 10:57:07;;;;;;;;;;;;;;;6.71;100.00;99145.25;4995861;28;20364;-87
2022/11/08 10:59:32;;;;;;;;;;;;;;;6.73;100.00;99141.66;4997023;28;19918;-85
2022/11/08 11:01:58;;;;;;;;;;;;;;;6.66;100.00;99142.78;4994927;28;19949;-88
2022/11/08 11:07:26;;;;;;;;;;;;;;;6.72;100.00;99139.06;5034702;28;19972;-87
2022/11/08 11:10:25;;;;;;;;;;;;;;;;;;;;;
2022/11/08 11:13:00;;;;;;;;;;;;;;;6.78;100.00;99132.69;5027971;28;19929;-89
2022/11/08 11:15:43;;;;;;;;;;;;;;;6.80;100.00;99131.75;5054579;28;20383;-93
2022/11/08 11:18:28;;;;;;;;;;;;;;;6.82;100.00;99129.91;5040538;28;19928;-87
2022/11/08 11:21:05;;;;;;;;;;;;;;;6.84;100.00;99128.06;5028239;28;19944;-96
2022/11/08 11:23:32;;;;;;;;;;;;;;;6.90;100.00;99121.72;5026837;28;19927;-88
2022/11/08 11:25:57;;;;;;;;;;;;;;;6.89;100.00;99120.88;5036302;28;19925;-89
2022/11/08 11:28:22;;;;;;;;;;;;;;;6.92;100.00;99125.13;5023690;28;20402;-88
2022/11/08 11:30:58;;;;;;;;;;;;;;;6.89;100.00;99117.34;5035748;28;19960;-89
2022/11/08 11:33:24;;;;;;;;;;;;;;;6.90;100.00;99121.72;5018881;28;20012;-87
2022/11/08 11:35:58;;;;;;;;;;;;;;;6.95;100.00;99118.91;5021520;28;19943;-89
2022/11/08 11:38:30;;;;;;;;;;;;;;;6.91;100.00;99112.91;5033138;28;19921;-87
2022/11/08 11:40:58;;;;;;;;;;;;;;;6.98;100.00;99111.72;5047219;28;19935;-90
2022/11/08 11:43:29;;;;;;;;;;;;;;;7.01;100.00;99108.97;5035606;28;19924;-87
2022/11/08 11:46:56;;;;;;;;;;;;;;;7.01;100.00;99105.50;5027842;28;19921;-88
2022/11/08 11:51:55;;;;;;;;;;;;;;;7.02;100.00;99094.91;5054050;22;19932;-89
2022/11/08 11:54:26;;;;;;;;;;;;;;;7.04;100.00;99093.06;5049650;28;19921;-88
2022/11/08 11:56:55;;;;;;;;;;;;;;;7.03;100.00;99093.13;5034475;28;20066;-90
2022/11/08 11:59:39;;;;;;;;;;;;;;;7.00;100.00;99104.63;5025528;28;19920;-90
2022/11/08 12:05:03;;;;;;;;;;;;;;;7.12;100.00;99089.28;5042382;22;20008;-90
2022/11/08 12:10:33;;;;;;;;;;;;;;;7.09;100.00;99091.09;5050263;28;19979;-89
2022/11/08 12:12:58;;;;;;;;;;;;;;;7.09;100.00;99083.19;5018113;28;19960;-88
2022/11/08 12:15:29;;;;;;;;;;;;;;;7.11;100.00;99085.75;5026703;28;20399;-89
2022/11/08 12:18:18;;;;;;;;;;;;;;;7.11;100.00;99077.00;5013351;28;19956;-88
2022/11/08 12:20:57;;;;;;;;;;;;;;;7.13;100.00;99080.44;5046492;28;19921;-88
2022/11/08 12:23:42;;;;;;;;;;;;;;;7.07;100.00;99071.88;5023132;28;20365;-89
2022/11/08 12:31:51;;;;;;;;;;;;;;;7.15;100.00;99073.31;5054091;28;19924;-86
2022/11/08 12:37:15;;;;;;;;;;;;;;;7.18;100.00;99075.84;5074780;23;20380;-86
2022/11/08 12:40:01;;;;;;;;;;;;;;;7.17;100.00;99066.22;5036225;28;19959;-86
2022/11/08 12:42:42;;;;;;;;;;;;;;;7.19;100.00;99065.22;5033639;28;19944;-89
2022/11/08 12:45:25;;;;;;;;;;;;;;;7.21;100.00;99059.91;5031504;28;19921;-88
2022/11/08 12:47:51;;;;;;;;;;;;;;;8.06;100.00;99051.03;5028645;28;19953;-83
2022/11/08 12:50:31;;;;;;;;;;;;;;;9.18;100.00;99053.81;5052999;28;19964;-89
2022/11/08 12:53:30;;;;;;;;;;;;;;;;;;;;;
2022/11/08 12:55:56;;;;;;;;;;;;;;;7.86;100.00;99049.31;5042219;28;20003;-89
2022/11/08 13:01:25;;;;;;;;;;;;;;;7.66;100.00;99045.75;5053951;28;19939;-88
2022/11/08 13:04:05;;;;;;;;;;;;;;;7.62;100.00;99058.19;5050681;28;20372;-91
2022/11/08 13:06:49;;;;;;;;;;;;;;;7.62;100.00;99049.44;5033161;28;19916;-87
2022/11/08 13:09:33;;;;;;;;;;;;;;;7.57;100.00;99048.75;5026597;28;19990;-88
2022/11/08 13:12:17;;;;;;;;;;;;;;;7.56;100.00;99041.78;5035563;28;19921;-88
2022/11/08 13:14:43;;;;;;;;;;;;;;;7.58;100.00;99045.22;5050125;28;20367;-87
2022/11/08 13:17:21;;;;;;;;;;;;;;;7.56;100.00;99031.22;5016799;28;19924;-88
2022/11/08 13:19:46;;;;;;;;;;;;;;;7.58;100.00;99032.03;5033503;28;20004;-87
2022/11/08 13:22:30;;;;;;;;;;;;;;;7.62;100.00;99030.97;5015213;28;20028;-87
2022/11/08 13:24:55;;;;;;;;;;;;;;;7.62;100.00;99025.69;5033521;28;19936;-87
2022/11/08 13:27:33;;;;;;;;;;;;;;;7.62;100.00;99034.44;5018534;28;19939;-88
2022/11/08 13:30:18;;;;;;;;;;;;;;;7.63;100.00;99030.91;5051698;28;19970;-88
2022/11/08 13:33:02;;;;;;;;;;;;;;;7.64;100.00;99026.47;5015629;28;19927;-88
2022/11/08 13:35:46;;;;;;;;;;;;;;;7.68;100.00;99029.88;5032682;28;20056;-88
2022/11/08 13:38:23;;;;;;;;;;;;;;;7.69;100.00;99021.88;5029796;28;19920;-88
2022/11/08 13:41:07;;;;;;;;;;;;;;;7.66;100.00;99019.38;5032961;28;19924;-88
2022/11/08 13:43:34;;;;;;;;;;;;;;;7.69;100.00;99011.34;5029659;28;20018;-87
2022/11/08 13:46:18;;;;;;;;;;;;;;;7.72;100.00;99012.97;5033279;28;19917;-88
2022/11/08 13:49:02;;;;;;;;;;;;;;;7.70;100.00;99013.03;5040217;28;20046;-88
2022/11/08 13:51:29;;;;;;;;;;;;;;;7.75;100.00;99005.78;5029891;28;19928;-86
2022/11/08 13:53:56;;;;;;;;;;;;;;;7.78;100.00;99005.63;5034263;28;19944;-87
2022/11/08 13:57:14;;;;;;;;;;;;;;;7.77;100.00;99003.06;5050003;28;19916;-93
2022/11/08 13:59:55;;;;;;;;;;;;;;;;;;;;;
2022/11/08 14:02:26;;;;;;;;;;;;;;;7.85;100.00;98997.47;5052418;28;19921;-92
2022/11/08 14:05:14;;;;;;;;;;;;;;;7.80;100.00;98997.66;5035075;28;19948;-90
2022/11/08 14:07:44;;;;;;;;;;;;;;;7.85;100.00;98998.34;5025503;28;19921;-88
2022/11/08 14:10:12;;;;;;;;;;;;;;;7.87;100.00;98995.63;5042992;28;20398;-88
2022/11/08 14:12:44;;;;;;;;;;;;;;;7.90;100.00;99000.78;5024465;28;19932;-88
2022/11/08 14:15:18;;;;;;;;;;;;;;;7.95;100.00;98998.78;5053091;28;19921;-87
2022/11/08 14:18:09;;;;;;;;;;;;;;;7.97;100.00;99004.84;5051344;28;19917;-87
2022/11/08 14:20:45;;;;;;;;;;;;;;;7.98;100.00;99004.78;5014460;28;20422;-87
2022/11/08 14:23:13;;;;;;;;;;;;;;;8.00;100.00;99004.69;5037376;28;19921;-86
2022/11/08 14:25:39;;;;;;;;;;;;;;;8.01;100.00;99006.44;5030700;28;19925;-90
2022/11/08 14:28:04;;;;;;;;;;;;;;;8.03;100.00;98996.66;5048928;28;19920;-91
2022/11/08 14:30:30;;;;;;;;;;;;;;;8.08;100.00;98997.28;5036234;28;19923;-88
2022/11/08 14:33:36;;;;;;;;;;;;;;;8.06;100.00;98999.16;5032854;28;19944;-87
2022/11/08 14:36:08;;;;;;;;;;;;;;;8.08;100.00;98994.66;5050483;28;20334;-87
2022/11/08 14:38:44;;;;;;;;;;;;;;;8.12;100.00;98990.97;5077403;22;19929;-89
2022/11/08 14:41:29;;;;;;;;;;;;;;;8.16;100.00;98989.03;5035377;28;20007;-89
2022/11/08 14:43:56;;;;;;;;;;;;;;;8.16;100.00;98995.16;5027800;28;19918;-88
2022/11/08 14:46:28;;;;;;;;;;;;;;;8.14;100.00;99001.44;5025383;28;19917;-87
2022/11/08 14:48:55;;;;;;;;;;;;;;;8.18;100.00;98995.09;5022871;28;19928;-87
2022/11/08 14:51:27;;;;;;;;;;;;;;;8.18;100.00;99003.88;5031438;28;20281;-88
2022/11/08 14:53:53;;;;;;;;;;;;;;;8.21;100.00;99002.88;5033102;28;20012;-87
2022/11/08 14:56:22;;;;;;;;;;;;;;;8.20;100.00;99006.47;5034325;28;20009;-86
2022/11/08 14:58:49;;;;;;;;;;;;;;;8.23;100.00;99003.66;5034020;28;20407;-86
2022/11/08 15:01:16;;;;;;;;;;;;;;;8.25;100.00;98993.91;5029860;28;19925;-86
2022/11/08 15:04:01;;;;;;;;;;;;;;;8.27;100.00;98997.31;5034343;28;19925;-86
2022/11/08 15:06:32;;;;;;;;;;;;;;;8.32;100.00;98999.75;5035519;28;19921;-87
2022/11/08 15:09:03;;;;;;;;;;;;;;;8.31;100.00;99006.81;5029781;28;20020;-87
2022/11/08 15:11:39;;;;;;;;;;;;;;;8.34;100.00;99000.53;5032643;28;19928;-87
2022/11/08 15:14:06;;;;;;;;;;;;;;;8.32;100.00;98995.31;5035251;28;19924;-87
2022/11/08 15:17:27;;;;;;;;;;;;;;;8.36;100.00;98996.91;5036168;28;20463;-93
2022/11/08 15:20:01;;;;;;;;;;;;;;;8.39;100.00;98993.25;5004431;28;19928;-87
2022/11/08 15:22:30;;;;;;;;;;;;;;;8.45;100.00;98984.22;5014815;28;19922;-87
2022/11/08 15:25:02;;;;;;;;;;;;;;;8.45;100.00;98989.50;5016152;28;19921;-88
2022/11/08 15:27:27;;;;;;;;;;;;;;;8.47;100.00;98991.16;5016696;28;19979;-87
2022/11/08 15:30:01;;;;;;;;;;;;;;;8.46;100.00;98984.16;5021564;28;19952;-87
2022/11/08 15:32:30;;;;;;;;;;;;;;;8.50;100.00;98980.47;5024286;28;19976;-88
2022/11/08 15:34:55;;;;;;;;;;;;;;;8.49;100.00;98970.81;5013595;28;20004;-88
2022/11/08 15:37:33;;;;;;;;;;;;;;;8.53;100.00;98982.06;5012554;28;20285;-90
2022/11/08 15:40:15;;;;;;;;;;;;;;;8.54;100.00;98974.09;5012003;28;20387;-94
2022/11/08 15:42:49;;;;;;;;;;;;;;;8.56;100.00;98970.53;5012526;28;19925;-87
2022/11/08 15:45:14;;;;;;;;;;;;;;;8.58;100.00;98968.66;5012840;28;19921;-87
2022/11/08 15:47:42;;;;;;;;;;;;;;;8.59;100.00;98976.50;4998069;28;19929;-87
2022/11/08 15:50:14;;;;;;;;;;;;;;;8.61;100.00;98976.44;5013316;28;19918;-87
2022/11/08 15:52:39;;;;;;;;;;;;;;;8.61;100.00;98987.00;5004201;28;19921;-87
2022/11/08 15:55:04;;;;;;;;;;;;;;;8.64;100.00;98990.34;5013324;28;19972;-87
2022/11/08 15:57:30;;;;;;;;;;;;;;;8.66;100.00;98985.88;5013213;28;19917;-87
2022/11/08 15:59:56;;;;;;;;;;;;;;;8.67;100.00;98987.56;5003095;28;20418;-88
2022/11/08 16:02:22;;;;;;;;;;;;;;;8.69;100.00;98990.13;5010165;28;20872;-88
2022/11/08 16:04:48;;;;;;;;;;;;;;;8.71;100.00;98985.63;5011489;28;19925;-88
2022/11/08 16:07:13;;;;;;;;;;;;;;;8.72;100.00;98971.50;5019296;28;20418;-86
2022/11/08 16:09:40;;;;;;;;;;;;;;;8.76;100.00;98978.34;5021983;28;19918;-88
2022/11/08 16:12:06;;;;;;;;;;;;;;;8.77;100.00;98985.31;5023626;28;19928;-87
2022/11/08 16:14:32;;;;;;;;;;;;;;;8.76;100.00;98983.63;5025794;28;19924;-87
2022/11/08 16:16:57;;;;;;;;;;;;;;;8.79;100.00;98978.22;5024756;28;19917;-86
2022/11/08 16:19:23;;;;;;;;;;;;;;;8.79;100.00;98979.97;5026458;28;19925;-86
2022/11/08 16:21:49;;;;;;;;;;;;;;;8.82;100.00;98983.34;5032304;28;19964;-87
2022/11/08 16:24:14;;;;;;;;;;;;;;;8.85;100.00;98988.44;5026260;28;19999;-86
2022/11/08 16:26:41;;;;;;;;;;;;;;;8.89;100.00;98984.75;5014811;28;19972;-87
2022/11/08 16:29:15;;;;;;;;;;;;;;;8.90;100.00;98981.19;5024751;28;19922;-87
2022/11/08 16:32:09;;;;;;;;;;;;;;;8.93;100.00;98982.78;5032234;28;19921;-89
2022/11/08 16:34:40;;;;;;;;;;;;;;;8.95;100.00;98980.97;5024806;28;19964;-89
2022/11/08 16:37:08;;;;;;;;;;;;;;;8.96;100.00;98980.00;5030011;28;19918;-90
2022/11/08 16:39:33;;;;;;;;;;;;;;;8.97;100.00;98984.38;5015294;28;19968;-89
2022/11/08 16:41:58;;;;;;;;;;;;;;;9.01;100.00;98982.44;5028580;28;19983;-87
2022/11/08 16:44:24;;;;;;;;;;;;;;;9.02;100.00;98989.44;5021495;28;19921;-87
2022/11/08 16:46:51;;;;;;;;;;;;;;;9.01;100.00;98987.72;5029643;28;19917;-86
2022/11/08 16:49:19;;;;;;;;;;;;;;;7.95;100.00;98991.72;5013302;28;19919;-87
2022/11/08 16:51:44;;;;;;;;;;;;;;;7.50;100.00;98990.19;5013191;28;19918;-87
2022/11/08 16:54:14;;;;;;;;;;;;;;;7.15;100.00;98997.78;5028374;28;20416;-87
2022/11/08 16:56:39;;;;;;;;;;;;;;;6.92;100.00;98998.72;5017453;28;20312;-87
2022/11/08 16:59:04;;;;;;;;;;;;;;;6.85;100.00;99002.53;5014637;28;19933;-87
2022/11/08 17:01:31;;;;;;;;;;;;;;;6.73;100.00;99001.22;5033863;28;20459;-87
2022/11/08 17:04:21;;;;;;;;;;;;;;;6.67;100.00;99004.09;5033976;28;19967;-90
2022/11/08 17:06:45;;;;;;;;;;;;;;;6.59;100.00;98996.53;5030251;28;20336;-86
2022/11/08 17:09:11;;;;;;;;;;;;;;;6.60;100.00;99007.91;5020301;28;20001;-87
2022/11/08 17:12:15;;;;;;;;;;;;;;;;;;;;;
2022/11/08 17:14:41;;;;;;;;;;;;;;;6.36;100.00;99011.41;5033081;28;20394;-87
2022/11/08 17:17:06;;;;;;;;;;;;;;;6.34;100.00;99015.03;5034659;28;20016;-87
2022/11/08 17:19:31;;;;;;;;;;;;;;;6.29;100.00;99009.09;5031616;28;20375;-87
2022/11/08 17:21:56;;;;;;;;;;;;;;;6.23;100.00;98999.63;5023760;28;19917;-88
2022/11/08 17:24:22;;;;;;;;;;;;;;;6.20;100.00;98996.28;5020411;28;19975;-86
2022/11/08 17:26:47;;;;;;;;;;;;;;;6.16;100.00;99003.44;5026750;28;20036;-85
2022/11/08 17:29:12;;;;;;;;;;;;;;;6.17;100.00;99013.00;5018891;28;19922;-86
2022/11/08 17:31:38;;;;;;;;;;;;;;;6.11;100.00;99014.13;5022944;28;19921;-86
2022/11/08 17:34:03;;;;;;;;;;;;;;;6.07;100.00;99011.66;5028866;28;19967;-87
2022/11/08 17:36:28;;;;;;;;;;;;;;;5.95;100.00;99005.03;5021000;28;19921;-87
2022/11/08 17:38:53;;;;;;;;;;;;;;;6.05;100.00;99005.56;5022918;28;19921;-87
2022/11/08 17:41:19;;;;;;;;;;;;;;;5.95;100.00;99011.16;5024581;28;20008;-87
2022/11/08 17:43:44;;;;;;;;;;;;;;;5.92;100.00;99006.00;5017946;28;20415;-87
2022/11/08 17:46:10;;;;;;;;;;;;;;;5.92;100.00;98998.13;5015991;28;20015;-85
2022/11/08 17:48:36;;;;;;;;;;;;;;;5.79;100.00;99004.72;5029065;28;19924;-89
2022/11/08 17:51:02;;;;;;;;;;;;;;;5.84;100.00;99002.81;5027911;28;20388;-87
2022/11/08 17:53:27;;;;;;;;;;;;;;;5.82;100.00;99005.50;5030330;28;19943;-87
2022/11/08 17:55:54;;;;;;;;;;;;;;;5.75;100.00;99003.97;5030171;28;19921;-87
2022/11/08 18:01:08;;;;;;;;;;;;;;;5.80;100.00;99006.44;5028382;28;19928;-87
2022/11/08 18:03:34;;;;;;;;;;;;;;;5.72;100.00;98998.81;5042997;28;20031;-85
2022/11/08 18:06:04;;;;;;;;;;;;;;;6.11;100.00;99002.72;5021439;28;20060;-85
2022/11/08 18:08:31;;;;;;;;;;;;;;;6.54;100.00;99003.72;5015982;28;19929;-85
2022/11/08 18:10:59;;;;;;;;;;;;;;;6.83;100.00;99005.22;5013420;28;19925;-88
2022/11/08 18:13:25;;;;;;;;;;;;;;;7.01;100.00;99008.88;5028437;28;19921;-85
2022/11/08 18:15:51;;;;;;;;;;;;;;;7.17;100.00;99003.00;5016638;28;20319;-85
2022/11/08 18:18:17;;;;;;;;;;;;;;;7.31;100.00;99005.91;5037866;28;19917;-85
2022/11/08 18:20:42;;;;;;;;;;;;;;;7.39;100.00;99006.44;5030584;28;20961;-85
2022/11/08 18:23:45;;;;;;;;;;;;;;;7.51;100.00;98996.31;5031852;28;19936;-85
2022/11/08 18:26:12;;;;;;;;;;;;;;;7.56;100.00;98997.84;5016199;28;19925;-85
2022/11/08 18:28:38;;;;;;;;;;;;;;;7.63;100.00;98998.41;5029952;28;19913;-85
2022/11/08 18:31:07;;;;;;;;;;;;;;;7.70;100.00;98994.56;5018245;28;19921;-85
2022/11/08 18:33:32;;;;;;;;;;;;;;;7.74;100.00;98988.25;5010947;28;19921;-85
2022/11/08 18:36:11;;;;;;;;;;;;;;;7.81;100.00;98986.19;5016753;28;19944;-87
2022/11/08 18:38:40;;;;;;;;;;;;;;;7.87;100.00;98987.72;5212468;23;19929;-85
2022/11/08 18:41:06;;;;;;;;;;;;;;;7.90;100.00;98977.03;5011057;28;19921;-85
2022/11/08 18:46:38;;;;;;;;;;;;;;;8.01;100.00;98977.41;4981471;28;19924;-86
2022/11/08 18:49:04;;;;;;;;;;;;;;;8.00;100.00;98984.44;5012468;28;20373;-85
2022/11/08 18:51:29;;;;;;;;;;;;;;;8.05;100.00;98984.25;4994533;28;19917;-85
2022/11/08 18:53:55;;;;;;;;;;;;;;;8.08;100.00;98986.75;5001688;28;19925;-85
2022/11/08 18:56:20;;;;;;;;;;;;;;;8.12;100.00;98988.31;4988981;28;19971;-85
2022/11/08 18:58:55;;;;;;;;;;;;;;;8.14;100.00;98991.75;4993382;28;19922;-85
2022/11/08 19:01:20;;;;;;;;;;;;;;;8.19;100.00;98992.38;4975163;28;19961;-85
2022/11/08 19:03:45;;;;;;;;;;;;;;;8.27;100.00;98991.19;4975003;28;19960;-85
2022/11/08 19:06:10;;;;;;;;;;;;;;;8.30;100.00;98986.63;4975076;28;19925;-85
2022/11/08 19:08:36;;;;;;;;;;;;;;;8.34;100.00;98982.03;4973645;28;19918;-88
2022/11/08 19:11:08;;;;;;;;;;;;;;;8.34;100.00;98989.97;4975076;28;19921;-85
2022/11/08 19:13:35;;;;;;;;;;;;;;;8.37;100.00;98993.31;4974814;28;19925;-85
2022/11/08 19:16:12;;;;;;;;;;;;;;;8.42;100.00;98995.75;4993015;28;19925;-85
2022/11/08 19:18:37;;;;;;;;;;;;;;;8.45;100.00;98995.63;4998625;28;19928;-86
2022/11/08 19:21:04;;;;;;;;;;;;;;;8.47;100.00;99001.72;5005788;28;19918;-85
2022/11/08 19:23:30;;;;;;;;;;;;;;;8.49;100.00;98991.94;4994604;28;20068;-85
2022/11/08 19:25:56;;;;;;;;;;;;;;;8.53;100.00;99009.31;4995561;28;19968;-84
2022/11/08 19:28:21;;;;;;;;;;;;;;;8.56;100.00;99008.34;5004042;28;20323;-85
2022/11/08 19:30:53;;;;;;;;;;;;;;;8.62;100.00;99001.94;5001655;28;19925;-85
2022/11/08 19:33:20;;;;;;;;;;;;;;;8.66;100.00;99014.91;5014898;28;20355;-88
2022/11/08 19:35:45;;;;;;;;;;;;;;;8.71;100.00;99017.31;4997289;28;19956;-85
2022/11/08 19:38:10;;;;;;;;;;;;;;;8.70;100.00;99018.25;5013800;28;19972;-85
2022/11/08 19:40:39;;;;;;;;;;;;;;;8.74;100.00;99019.81;5007969;28;19968;-85
2022/11/08 19:43:04;;;;;;;;;;;;;;;8.79;100.00;99020.47;5000945;28;19918;-85
2022/11/08 19:45:30;;;;;;;;;;;;;;;8.81;100.00;99037.09;5005422;28;20301;-85
2022/11/08 19:47:55;;;;;;;;;;;;;;;8.85;100.00;99041.28;5003753;28;20369;-85
2022/11/08 19:50:20;;;;;;;;;;;;;;;8.88;100.00;99040.28;4997607;28;19976;-85
2022/11/08 19:52:46;;;;;;;;;;;;;;;8.93;100.00;99042.72;4994251;28;20337;-88
2022/11/08 19:55:11;;;;;;;;;;;;;;;9.01;100.00;99041.41;4998523;28;19922;-85
2022/11/08 19:57:36;;;;;;;;;;;;;;;9.02;100.00;99037.84;5001328;28;19963;-85